Formosa do Sul, Brazil
Current Conditions -  °F | °C
As of 12:15 AM on Monday 20 Oct 2014 (Local Time) from SBCH Reporting Station
Clear Clear  
Wind Chill: 63°   Ceiling: Unl
Heat Index: 63°   Visibility: 6mi
Dew Point: 63°   Wind: 3mph
Humidity: 100%   Direction: 120°ESE
Pressure: 30.03"   Gusts: NA
Location:  26.65°S, 52.79°W
Report Text: SBCH 200315Z 12003KT CAVOK 17/17 Q1017
Loading
Personal Weather Stations






























Interactive Weather Map
Tropical Storm Tracking
New forecast layout! Learn more

10-Day Weather Forecast

Advertisements
Track Severe Weather on mobile